馬祖南竿航空站 - ATIS

METAR RCFG 191100Z VRB02KT 6000 SCT008 BKN018 BKN100 17/17 Q1008 NOSIG RMK 00000KT/R21 MAX WND 04KT/R03 10005KT/NJL A2979(M)=

站台狀態:Online
最後更新:2024-04-20 02:30:01